ADDS METAR Data INFO
IDs: Format: Raw Decoded Include TAF

Data at: 0644 UTC 23 Feb 2018

KAHQ 230635Z AUTO 00000KT 7SM OVC029 M02/M03 A3018 RMK AO2 T10201031
KAHQ 230615Z AUTO 28003KT 7SM SCT021 OVC028 M02/M03 A3018 RMK AO2 T10201030
KAHQ 230555Z AUTO 31004KT 7SM BKN019 OVC028 M02/M03 A3017 RMK AO2 60002 T10201030 11007 21020 410071060
KAHQ 230535Z AUTO 31005KT 7SM BKN017 OVC031 M02/M03 A3017 RMK AO2 T10181028
KAHQ 230515Z AUTO 31004KT 10SM SCT017 BKN033 OVC050 M02/M03 A3017 RMK AO2 T10171027
KAHQ 230455Z AUTO 34004KT 10SM OVC050 M02/M03 A3015 RMK AO2 T10171026
KAHQ 230435Z AUTO 34003KT 7SM SCT040 OVC048 M02/M02 A3017 RMK AO2 T10161025
KAHQ 230415Z AUTO 32006KT 5SM -SN SCT007 BKN039 OVC050 M01/M02 A3018 RMK AO2 T10151023
KAHQ 230355Z AUTO 31007KT 2SM -SN BKN005 BKN010 OVC019 M01/M02 A3018 RMK AO2 T10111017
KAHQ 230335Z AUTO 24003KT 1 1/2SM -SN SCT004 SCT014 OVC027 M01/M02 A3019 RMK AO2 T10101017
KAHQ 230315Z AUTO 23004KT 4SM BR SCT004 BKN020 OVC027 M01/M02 A3019 RMK AO2 T10081016
KAHQ 230255Z AUTO 24003KT 3SM -SN SCT004 BKN008 OVC020 M01/M01 A3019 RMK AO2 60002 T10071015
KAHQ 230235Z AUTO 20003KT 3SM UP BKN004 OVC011 M01/M01 A3018 RMK AO2 T10071014
KAHQ 230215Z AUTO 21003KT 3SM UP SCT006 BKN012 OVC017 M01/M01 A3019 RMK AO2 T10071015
KAHQ 230155Z AUTO 19003KT 2 1/2SM -SN SCT004 BKN012 OVC017 M01/M02 A3019 RMK AO2 P0001 T10081016
KAHQ 230135Z AUTO 19004KT 3SM -SN SCT005 BKN008 OVC019 M01/M02 A3020 RMK AO2 P0001 T10081016
KAHQ 230115Z AUTO 16006KT 3SM -SN SCT003 BKN008 OVC022 M01/M02 A3019 RMK AO2 T10101017
KAHQ 230055Z AUTO 18004KT 2 1/2SM UP BKN003 OVC010 M01/M02 A3019 RMK AO2 T10101017
KAHQ 230035Z AUTO 19003KT 2SM UP OVC005 M01/M02 A3019 RMK AO2 T10121020
KAHQ 230015Z AUTO 14003KT 2SM UP OVC005 M01/M02 A3017 RMK AO2 T10131022
KAHQ 222355Z AUTO 12004KT 5SM BR OVC005 M01/M02 A3016 RMK AO2 T10141023 11012 21032
KAHQ 222335Z AUTO 12006KT 7SM OVC007 M01/M02 A3017 RMK AO2 T10151025
KAHQ 222315Z AUTO 12007KT 7SM OVC007 M01/M02 A3018 RMK AO2 T10141025
KAHQ 222255Z AUTO 13006KT 5SM UP OVC005 M01/M02 A3018 RMK AO2 T10151025
KAHQ 222235Z AUTO 11006KT 3SM UP OVC005 M01/M02 A3019 RMK AO2 T10151024
KAHQ 222215Z AUTO 13007KT 4SM BR OVC003 M02/M03 A3020 RMK AO2 T10171026
KAHQ 222155Z AUTO 12008KT 3SM BR OVC003 M02/M03 A3020 RMK AO2 T10191026
KAHQ 222135Z AUTO 10007KT 2 1/2SM BR OVC003 M02/M03 A3020 RMK AO2 T10201029
KAHQ 222115Z AUTO 10006KT 3SM BR OVC005 M02/M03 A3022 RMK AO2 T10201030
KAHQ 222055Z AUTO 12008KT 4SM BR OVC005 M02/M03 A3024 RMK AO2 T10201030
KAHQ 222035Z AUTO 12006KT 4SM BR OVC005 M02/M03 A3025 RMK AO2 T10211033
KAHQ 222015Z AUTO 13008KT 4SM BR OVC005 M02/M03 A3028 RMK AO2 T10211032
KAHQ 221955Z AUTO 12008KT 2 1/2SM BR OVC007 M02/M03 A3028 RMK AO2 T10251035
KAHQ 221935Z AUTO 12007KT 2 1/2SM BR OVC007 M02/M04 A3030 RMK AO2 T10251037
KAHQ 221915Z AUTO 13006KT 3SM BR OVC007 M02/M04 A3030 RMK AO2 T10251040
KAHQ 221855Z AUTO 12005KT 10SM OVC007 M03/M04 A3031 RMK AO2 T10291045
KAHQ 221835Z AUTO 13005KT 10SM OVC007 M03/M05 A3034 RMK AO2 T10301046
KAHQ 221815Z AUTO 11004KT 5SM BR OVC007 M03/M05 A3032 RMK AO2 T10321047
KAHQ 221755Z AUTO 12006KT 7SM OVC007 M03/M05 A3033 RMK AO2 T10311046 11031 21060
KAHQ 221735Z AUTO 11007KT 4SM BR OVC009 M03/M05 A3034 RMK AO2 T10331048
KAHQ 221715Z AUTO 13007KT 2 1/2SM BR OVC009 M03/M05 A3037 RMK AO2 T10331048
KAHQ 221655Z AUTO 14008KT 4SM BR OVC009 M03/M05 A3039 RMK AO2 T10351052
KAHQ 221635Z AUTO 13007KT 10SM OVC011 M03/M06 A3040 RMK AO2 T10351056
KAHQ 221615Z AUTO 13009KT 10SM OVC011 M04/M06 A3039 RMK AO2 T10361056
KAHQ 221555Z AUTO 12006KT 10SM OVC011 M04/M06 A3039 RMK AO2 T10391057
KAHQ 221535Z AUTO 10006KT 10SM OVC011 M04/M06 A3039 RMK AO2 T10421060
KAHQ 221515Z AUTO 08005KT 10SM BKN011 BKN014 OVC070 M04/M06 A3038 RMK AO2 T10441062
KAHQ 221455Z AUTO 07007KT 10SM SCT014 SCT021 OVC070 M05/M06 A3038 RMK AO2 T10461064
KAHQ 221435Z AUTO 06008KT 10SM SCT034 OVC070 M05/M06 A3038 RMK AO2 T10481065
KAHQ 221415Z AUTO 06006KT 10SM SCT032 OVC070 M05/M07 A3040 RMK AO2 T10511068
KAHQ 221355Z AUTO 05005KT 10SM SCT024 BKN030 OVC070 M05/M07 A3040 RMK AO2 T10531070
KAHQ 221335Z AUTO 05005KT 7SM -SN BKN024 OVC031 M05/M07 A3041 RMK AO2 T10551070
KAHQ 221315Z AUTO 06007KT 10SM SCT022 OVC031 M05/M07 A3041 RMK AO2 T10551071
KAHQ 221255Z AUTO 06007KT 10SM -SN SCT021 BKN031 OVC120 M06/M07 A3040 RMK AO2 T10561072
KAHQ 221235Z AUTO 05006KT 10SM SCT021 OVC031 M06/M07 A3041 RMK AO2 T10571073
KAHQ 221215Z AUTO 04006KT 10SM BKN031 BKN045 M06/M07 A3042 RMK AO2 T10571072
KAHQ 221155Z AUTO 04006KT 10SM SCT027 SCT035 BKN110 M06/M07 A3043 RMK AO2 60002 70002 T10601075 11046 21060
KAHQ 221135Z AUTO 05006KT 7SM -SN SCT018 BKN046 OVC110 M06/M07 A3042 RMK AO2 T10601074
KAHQ 221115Z AUTO 05006KT 5SM -SN BKN018 BKN031 OVC050 M06/M07 A3043 RMK AO2 T10601075
KAHQ 221055Z AUTO 03004KT 7SM -SN SCT016 BKN031 OVC050 M06/M07 A3044 RMK AO2 T10581073
KAHQ 221035Z AUTO 04005KT 4SM -SN SCT014 BKN019 OVC045 M05/M07 A3044 RMK AO2 T10551070
KAHQ 221015Z AUTO 04007KT 10SM -SN SCT025 BKN065 OVC075 M05/M07 A3045 RMK AO2 T10551071
KAHQ 220955Z AUTO 04006KT 10SM BKN060 OVC080 M05/M07 A3046 RMK AO2 T10551070
KAHQ 220935Z AUTO 05006KT 10SM SCT050 OVC060 M05/M07 A3045 RMK AO2 T10551070
KAHQ 220915Z AUTO 05007KT 10SM SCT050 OVC065 M05/M07 A3047 RMK AO2 T10551070
KAHQ 220855Z AUTO 06003KT 10SM SCT045 BKN065 OVC090 M06/M07 A3048 RMK AO2 60002 T10561072
KAHQ 220835Z AUTO 05005KT 10SM BKN046 OVC060 M06/M07 A3047 RMK AO2 T10561071
KAHQ 220815Z AUTO 04006KT 10SM BKN047 OVC050 M06/M07 A3047 RMK AO2 T10561070
KAHQ 220755Z AUTO 05005KT 4SM -SN BKN012 BKN019 OVC048 M06/M07 A3048 RMK AO2 P0002 T10571070
KAHQ 220735Z AUTO 03006KT 3SM -SN SCT003 OVC010 M06/M07 A3048 RMK AO2 P0002 T10571069
KAHQ 220715Z AUTO 05006KT 1/2SM +SN OVC003 M06/M07 A3050 RMK AO2 P0001 T10561069
KAHQ 220655Z AUTO 09007KT 1/2SM +SN OVC003 M05/M07 A3052 RMK AO2 T10541072
KAHQ 220635Z AUTO 07008KT 3SM -SN SCT013 OVC025 M05/M08 A3050 RMK AO2 T10491082
KAHQ 220615Z AUTO 06008KT 10SM -SN SCT023 BKN032 OVC065 M05/M09 A3050 RMK AO2 T10471086
KAHQ 220555Z AUTO 09008KT 10SM OVC065 M05/M08 A3051 RMK AO2 T10461085 11040 21047 410361146
KAHQ 220535Z AUTO 09008KT 10SM OVC065 M05/M09 A3051 RMK AO2 T10461087
KAHQ 220515Z AUTO 05007KT 10SM SCT048 SCT050 OVC065 M05/M09 A3050 RMK AO2 T10461086
KAHQ 220455Z AUTO 06007KT 10SM SCT055 OVC065 M04/M09 A3051 RMK AO2 T10451089
KAHQ 220435Z AUTO 06006KT 10SM SCT055 OVC065 M04/M08 A3051 RMK AO2 T10441085
KAHQ 220415Z AUTO 04009KT 10SM BKN060 OVC065 M04/M08 A3050 RMK AO2 T10431084
KAHQ 220355Z AUTO 05008KT 10SM BKN050 BKN080 OVC100 M04/M09 A3051 RMK AO2 T10421087
KAHQ 220035Z AUTO 06007KT 10SM OVC100 M04/M09 A3054 RMK AO2 T10411091
KAHQ 220015Z AUTO 06008KT 10SM OVC100 M04/M10 A3055 RMK AO2 T10421096
KAHQ 212355Z AUTO 07007KT 10SM OVC110 M04/M10 A3056 RMK AO2 T10401097 11036 21071
KAHQ 212335Z AUTO 08007KT 10SM BKN120 M04/M10 A3056 RMK AO2 T10401096
KAHQ 212315Z AUTO 08005KT 10SM SCT120 M04/M10 A3056 RMK AO2 T10401100
KAHQ 212255Z AUTO 07007KT 10SM SCT120 M04/M10 A3056 RMK AO2 T10411103
KAHQ 212235Z AUTO 04006KT 10SM CLR M04/M10 A3054 RMK AO2 T10381103
KAHQ 212215Z AUTO 06007KT 10SM CLR M04/M11 A3054 RMK AO2 T10381106
KAHQ 212155Z AUTO 08003KT 10SM CLR M04/M11 A3055 RMK AO2 T10401114
KAHQ 212135Z AUTO 03006KT 10SM CLR M04/M11 A3054 RMK AO2 T10411108
KAHQ 212115Z AUTO 05005KT 10SM CLR M04/M11 A3056 RMK AO2 T10441113
KAHQ 212055Z AUTO 04004KT 10SM CLR M04/M11 A3056 RMK AO2 T10451115
KAHQ 212035Z AUTO 00000KT 10SM CLR M05/M11 A3056 RMK AO2 T10491112
KAHQ 212015Z AUTO 07004KT 10SM CLR M05/M12 A3058 RMK AO2 T10491119
KAHQ 211955Z AUTO 10003KT 10SM CLR M05/M12 A3060 RMK AO2 T10481117
KAHQ 211935Z AUTO 07003KT 10SM CLR M05/M12 A3061 RMK AO2 T10521117
KAHQ 211915Z AUTO 08003KT 10SM CLR M06/M13 A3060 RMK AO2 T10571127
KAHQ 211855Z AUTO 09004KT 10SM CLR M06/M13 A3061 RMK AO2 T10601131